• Join FlightAware (Why Join?)
  • Login
  • US Flag 
Gobble Gobble! 
04:41AM EST


 

Airport Tracker/Info


-or-


 

Live Flight TrackerFlight Track Log ✈ UPS238 ✈ 28-Jun-2013 ✈ EGSS / STN - KSDF

Flight Track Log - Related Links

Times and Time Zones

All times are in EDT time to prevent confusion due to time zone crossing. See the UPS238 flight status page for this flight to view local times or setup timezone preferences in your user account.

Time Position Orientation Groundspeed Altitude Reporting Facility
EDT Latitude Longitude Course Direction KTS MPH feet Rate Location/Type
02:25AM 38.8167 -84.9000 216° Southwest 366 421 15,200  Level Cincinnati TRACON
02:27AM 38.7172 -84.9936 216° Southwest 354 407 13,300 -960 Descending Indianapolis Center
02:33AM 38.2830 -85.4080 216° Southwest 272 313 8,200 -900 Descending FlightAware
02:33AM 38.2450 -85.4450 217° Southwest 265 305 7,400 -1,620 Descending FlightAware
02:33AM 38.2350 -85.4660 239° Southwest 259 298 7,000 -1,500 Descending FlightAware
02:34AM 38.2270 -85.4820 238° Southwest 263 303 6,700 -1,380 Descending FlightAware
02:34AM 38.2010 -85.5120 222° Southwest 265 305 6,100 -1,200 Descending FlightAware
02:37AM 38.0780 -85.6520 222° Southwest 206 237 3,300 -1,140 Descending FlightAware
02:37AM 38.0670 -85.6650 223° Southwest 198 228 3,100 -780 Descending FlightAware
02:37AM 38.0590 -85.6800 236° Southwest 186 214 2,900 -600 Descending FlightAware
02:37AM 38.0550 -85.6960 252° West 175 201 2,800 -540 Descending FlightAware
02:38AM 38.0720 -85.7130 322° Northwest 165 190 2,500 -780 Descending FlightAware
02:38AM 38.0920 -85.7180 349° North 156 180 2,100 -900 Descending FlightAware
02:39AM 38.1100 -85.7240 345° North 146 168 1,700 -780 Descending FlightAware
02:39AM 38.1290 -85.7300 346° North 149 171 1,400 -780 Descending FlightAware
02:39AM 38.1370 -85.7320 349° North 150 173 1,200 -780 Descending FlightAware
02:40AM 38.1550 -85.7380 345° North 150 173 900 -660 Descending FlightAware
02:41AM 38.1760 -85.7440 347° North 20 23 -780 Descending FlightAware
02:42AM 38.1770 -85.7430 38° Northeast 23 26  Level FlightAware
02:42AM 38.1750 -85.7420 159° South 29 33  Level FlightAware
02:42AM 38.1740 -85.7420 180° South 26 30  Level FlightAware
02:43AM 38.1730 -85.7370 104° East 25 29  Level FlightAware
02:48AM 38.1667 -85.7333 208° Southwest  Level FlightAware Approximate